createdAt,value
2018-11-25T00:00:24.010Z,99812.79
2018-11-25T00:02:53.233Z,99819.77
2018-11-25T00:05:22.481Z,99818.75
2018-11-25T00:07:51.682Z,99815.02
2018-11-25T00:10:20.946Z,99812.83
2018-11-25T00:12:50.122Z,99820.00
2018-11-25T00:15:19.603Z,99823.09
2018-11-25T00:17:48.837Z,99820.27
2018-11-25T00:20:18.383Z,99821.05
2018-11-25T00:22:47.591Z,99807.42
2018-11-25T00:25:17.852Z,99804.56
2018-11-25T00:27:47.049Z,99803.42
2018-11-25T00:30:17.645Z,99797.45
2018-11-25T00:32:46.832Z,99797.50
2018-11-25T00:35:17.982Z,99795.61
2018-11-25T00:37:48.347Z,99797.02
2018-11-25T00:40:18.958Z,99801.21
2018-11-25T00:42:48.172Z,99797.27
2018-11-25T00:45:20.838Z,99801.19
2018-11-25T00:47:50.467Z,99798.69
2018-11-25T00:50:20.258Z,99805.37
2018-11-25T00:52:49.456Z,99800.85
2018-11-25T00:55:19.061Z,99806.58
2018-11-25T00:57:48.364Z,99800.63
2018-11-25T01:00:19.899Z,99801.87
2018-11-25T01:02:50.033Z,99803.63
2018-11-25T01:05:19.639Z,99804.66
2018-11-25T01:07:48.849Z,99804.01
2018-11-25T01:10:18.884Z,99803.52
2018-11-25T01:12:48.137Z,99803.07
2018-11-25T01:15:18.504Z,99805.92
2018-11-25T01:17:47.751Z,99800.08
2018-11-25T01:20:18.731Z,99806.95
2018-11-25T01:22:47.980Z,99798.73
2018-11-25T01:25:17.747Z,99801.53
2018-11-25T01:27:46.980Z,99805.92
2018-11-25T01:30:17.600Z,99799.56
2018-11-25T01:32:46.808Z,99800.41
2018-11-25T01:35:17.155Z,99792.12
2018-11-25T01:37:46.429Z,99789.14
2018-11-25T01:40:18.689Z,99789.66
2018-11-25T01:42:48.304Z,99783.23
2018-11-25T01:45:19.544Z,99781.92
2018-11-25T01:47:48.739Z,99784.27
2018-11-25T01:50:18.959Z,99776.27
2018-11-25T01:52:48.311Z,99772.27
2018-11-25T01:55:20.086Z,99769.91
2018-11-25T01:57:49.291Z,99771.00
2018-11-25T02:00:19.798Z,99759.62
2018-11-25T02:02:49.272Z,99767.91
2018-11-25T02:05:19.343Z,99765.33
2018-11-25T02:07:48.536Z,99760.89
2018-11-25T02:10:19.899Z,99756.97
2018-11-25T02:12:49.100Z,99751.05
2018-11-25T02:15:19.615Z,99746.73
2018-11-25T02:17:48.789Z,99753.09
2018-11-25T02:20:21.951Z,99756.97
2018-11-25T02:22:52.028Z,99753.51
2018-11-25T02:25:21.289Z,99749.72
2018-11-25T02:27:51.491Z,99748.25
2018-11-25T02:30:20.769Z,99738.33
2018-11-25T02:32:49.975Z,99744.22
2018-11-25T02:35:19.875Z,99737.83
2018-11-25T02:37:49.204Z,99732.52
2018-11-25T02:40:18.898Z,99733.66
2018-11-25T02:42:48.112Z,99730.41
2018-11-25T02:45:19.896Z,99729.82
2018-11-25T02:47:49.065Z,99733.08
2018-11-25T02:50:25.945Z,99733.66
2018-11-25T02:52:56.056Z,99727.30
2018-11-25T02:55:26.037Z,99726.11
2018-11-25T02:57:55.311Z,99727.95
2018-11-25T03:00:24.674Z,99730.78
2018-11-25T03:02:53.922Z,99730.41
2018-11-25T03:05:23.136Z,99728.34
2018-11-25T03:07:52.400Z,99730.08
2018-11-25T03:10:22.050Z,99726.16
2018-11-25T03:12:51.278Z,99723.84
2018-11-25T03:15:20.763Z,99715.44
2018-11-25T03:17:49.945Z,99714.36
2018-11-25T03:20:19.245Z,99718.58
2018-11-25T03:22:48.459Z,99710.91
2018-11-25T03:25:19.756Z,99711.87
2018-11-25T03:27:49.022Z,99713.47
2018-11-25T03:30:21.001Z,99718.30
2018-11-25T03:32:52.088Z,99712.43
2018-11-25T03:35:21.819Z,99714.66
2018-11-25T03:37:51.004Z,99711.09
2018-11-25T03:40:20.408Z,99701.17
2018-11-25T03:42:49.657Z,99703.33
2018-11-25T03:45:20.752Z,99694.21
2018-11-25T03:47:50.001Z,99697.57
2018-11-25T03:50:19.378Z,99692.66
2018-11-25T03:52:48.555Z,99688.05
2018-11-25T03:55:18.699Z,99691.39
2018-11-25T03:57:47.967Z,99693.11
2018-11-25T04:00:20.742Z,99695.21
2018-11-25T04:02:51.045Z,99688.00
2018-11-25T04:05:21.088Z,99691.11
2018-11-25T04:07:50.350Z,99691.72
2018-11-25T04:10:20.557Z,99693.55
2018-11-25T04:12:49.811Z,99693.02
2018-11-25T04:15:20.384Z,99684.03
2018-11-25T04:17:49.756Z,99686.52
2018-11-25T04:20:20.231Z,99692.51
2018-11-25T04:22:49.832Z,99694.69
2018-11-25T04:25:19.892Z,99696.96
2018-11-25T04:27:49.158Z,99696.91
2018-11-25T04:30:19.487Z,99691.52
2018-11-25T04:32:50.107Z,99698.55
2018-11-25T04:35:19.725Z,99700.20
2018-11-25T04:37:49.011Z,99689.23
2018-11-25T04:40:19.368Z,99692.53
2018-11-25T04:42:48.610Z,99690.00
2018-11-25T04:45:18.658Z,99689.66
2018-11-25T04:47:48.124Z,99679.20
2018-11-25T04:50:19.420Z,99683.20
2018-11-25T04:52:48.722Z,99681.73
2018-11-25T04:55:18.733Z,99682.95
2018-11-25T04:57:50.412Z,99687.08
2018-11-25T05:00:20.743Z,99686.94
2018-11-25T05:02:50.772Z,99696.34
2018-11-25T05:05:20.157Z,99693.73
2018-11-25T05:07:49.354Z,99695.27
2018-11-25T05:10:19.560Z,99691.38
2018-11-25T05:12:48.795Z,99688.34
2018-11-25T05:15:20.387Z,99693.98
2018-11-25T05:17:49.734Z,99689.03
2018-11-25T05:20:20.260Z,99686.88
2018-11-25T05:22:49.512Z,99673.66
2018-11-25T05:25:20.105Z,99672.45
2018-11-25T05:27:49.389Z,99675.33
2018-11-25T05:30:20.287Z,99675.15
2018-11-25T05:32:49.535Z,99675.06
2018-11-25T05:35:20.936Z,99679.77
2018-11-25T05:37:50.167Z,99680.34
2018-11-25T05:40:20.248Z,99685.09
2018-11-25T05:42:49.457Z,99682.20
2018-11-25T05:45:20.477Z,99678.23
2018-11-25T05:47:49.693Z,99682.18
2018-11-25T05:50:19.982Z,99676.48
2018-11-25T05:52:49.237Z,99671.72
2018-11-25T05:55:19.292Z,99679.64
2018-11-25T05:57:48.563Z,99672.91
2018-11-25T06:00:28.295Z,99665.44
2018-11-25T06:02:57.546Z,99669.16
2018-11-25T06:05:26.813Z,99665.80
2018-11-25T06:07:56.074Z,99663.32
2018-11-25T06:10:25.382Z,99669.25
2018-11-25T06:12:54.645Z,99666.63
2018-11-25T06:15:24.025Z,99663.41
2018-11-25T06:17:53.270Z,99667.52
2018-11-25T06:20:22.489Z,99671.59
2018-11-25T06:22:51.677Z,99666.13
2018-11-25T06:25:21.596Z,99673.98
2018-11-25T06:27:50.799Z,99676.75
2018-11-25T06:30:20.603Z,99675.23
2018-11-25T06:32:49.867Z,99679.05
2018-11-25T06:35:19.839Z,99679.32
2018-11-25T06:37:49.061Z,99677.91
2018-11-25T06:40:19.200Z,99681.70
2018-11-25T06:42:48.475Z,99676.42
2018-11-25T06:45:19.841Z,99672.86
2018-11-25T06:47:49.070Z,99677.81
2018-11-25T06:50:18.333Z,99681.33
2018-11-25T06:52:47.510Z,99679.95
2018-11-25T06:55:16.764Z,99681.60
2018-11-25T06:57:45.938Z,99682.24
2018-11-25T07:00:18.057Z,99681.83
2018-11-25T07:02:47.289Z,99680.53
2018-11-25T07:05:16.563Z,99684.06
2018-11-25T07:07:45.821Z,99673.31
2018-11-25T07:10:18.859Z,99673.37
2018-11-25T07:12:49.007Z,99673.05
2018-11-25T07:15:18.738Z,99676.09
2018-11-25T07:17:48.013Z,99666.70
2018-11-25T07:20:18.060Z,99662.51
2018-11-25T07:22:47.328Z,99669.23
2018-11-25T07:25:18.609Z,99668.34
2018-11-25T07:27:47.820Z,99673.36
2018-11-25T07:30:21.602Z,99665.28
2018-11-25T07:32:50.820Z,99669.49
2018-11-25T07:35:20.068Z,99671.06
2018-11-25T07:37:49.301Z,99672.40
2018-11-25T07:40:20.227Z,99669.41
2018-11-25T07:42:49.648Z,99669.66
2018-11-25T07:45:21.442Z,99668.97
2018-11-25T07:47:50.672Z,99664.08
2018-11-25T07:50:19.973Z,99662.52
2018-11-25T07:52:49.608Z,99656.80
2018-11-25T07:55:20.745Z,99659.85
2018-11-25T07:57:50.865Z,99651.16
2018-11-25T08:00:20.985Z,99655.77
2018-11-25T08:02:50.988Z,99653.69
2018-11-25T08:05:23.041Z,99650.51
2018-11-25T08:07:52.275Z,99654.43
2018-11-25T08:10:21.519Z,99655.58
2018-11-25T08:12:50.718Z,99650.49
2018-11-25T08:15:20.227Z,99651.78
2018-11-25T08:17:49.424Z,99651.27
2018-11-25T08:20:19.551Z,99646.25
2018-11-25T08:22:48.856Z,99642.52
2018-11-25T08:25:18.892Z,99646.62
2018-11-25T08:27:48.104Z,99643.84
2018-11-25T08:30:19.160Z,99641.28
2018-11-25T08:32:48.558Z,99649.55
2018-11-25T08:35:17.976Z,99641.73
2018-11-25T08:37:47.182Z,99639.70
2018-11-25T08:40:19.378Z,99635.99
2018-11-25T08:42:48.647Z,99638.58
2018-11-25T08:45:17.888Z,99633.30
2018-11-25T08:47:47.188Z,99626.72
2018-11-25T08:50:18.644Z,99623.22
2018-11-25T08:52:50.942Z,99623.86
2018-11-25T08:55:22.211Z,99626.94
2018-11-25T08:57:51.552Z,99627.29
2018-11-25T09:00:23.601Z,99613.82
2018-11-25T09:02:53.856Z,99620.16
2018-11-25T09:05:23.114Z,99624.31
2018-11-25T09:07:52.433Z,99617.14
2018-11-25T09:10:22.411Z,99620.86
2018-11-25T09:12:56.571Z,99616.14
2018-11-25T09:15:26.688Z,99619.55
2018-11-25T09:17:55.963Z,99613.01
2018-11-25T09:20:25.255Z,99612.95
2018-11-25T09:22:54.491Z,99609.16
2018-11-25T09:25:26.755Z,99602.72
2018-11-25T09:27:56.507Z,99604.66
2018-11-25T09:30:26.645Z,99603.27
2018-11-25T09:32:55.920Z,99600.12
2018-11-25T09:35:25.411Z,99605.06
2018-11-25T09:37:54.658Z,99603.42
2018-11-25T09:40:25.972Z,99596.75
2018-11-25T09:42:55.181Z,99607.73
2018-11-25T09:45:24.390Z,99609.59
2018-11-25T09:47:53.639Z,99607.63
2018-11-25T09:50:23.601Z,99604.87
2018-11-25T09:52:52.807Z,99605.89
2018-11-25T09:55:23.002Z,99607.15
2018-11-25T09:57:57.211Z,99600.60
2018-11-25T10:00:27.741Z,99591.45
2018-11-25T10:02:56.938Z,99598.11
2018-11-25T10:05:26.270Z,99597.51
2018-11-25T10:07:55.478Z,99594.12
2018-11-25T10:10:25.259Z,99592.21
2018-11-25T10:12:54.445Z,99590.45
2018-11-25T10:15:25.837Z,99584.53
2018-11-25T10:17:59.807Z,99586.38
2018-11-25T10:20:26.841Z,99582.95
2018-11-25T10:22:56.039Z,99582.17
2018-11-25T10:25:25.251Z,99580.98
2018-11-25T10:27:54.552Z,99580.61
2018-11-25T10:30:25.900Z,99574.52
2018-11-25T10:33:01.310Z,99583.57
2018-11-25T10:35:30.580Z,99573.93
2018-11-25T10:37:59.791Z,99580.09
2018-11-25T10:40:29.044Z,99574.00
2018-11-25T10:42:58.233Z,99573.30
2018-11-25T10:45:28.258Z,99576.52
2018-11-25T10:47:58.078Z,99574.63
2018-11-25T10:50:27.357Z,99573.03
2018-11-25T10:52:56.641Z,99570.16
2018-11-25T10:55:25.855Z,99574.15
2018-11-25T10:57:55.097Z,99570.67
2018-11-25T11:00:32.780Z,99569.09
2018-11-25T11:03:08.375Z,99570.23
2018-11-25T11:05:43.750Z,99563.62
2018-11-25T11:08:14.979Z,99557.95
2018-11-25T11:10:45.494Z,99558.23
2018-11-25T11:13:16.036Z,99552.47
2018-11-25T11:15:46.575Z,99554.48
2018-11-25T11:18:15.965Z,99553.39
2018-11-25T11:20:46.334Z,99549.05
2018-11-25T11:23:15.566Z,99547.91
2018-11-25T11:25:44.891Z,99548.90
2018-11-25T11:28:14.070Z,99537.66
2018-11-25T11:30:43.279Z,99542.88
2018-11-25T11:33:12.457Z,99539.51
2018-11-25T11:35:42.070Z,99537.30
2018-11-25T11:38:11.263Z,99539.39
2018-11-25T11:40:40.476Z,99534.36
2018-11-25T11:43:10.161Z,99533.77
2018-11-25T11:45:39.413Z,99537.22
2018-11-25T11:48:08.665Z,99529.23
2018-11-25T11:50:37.847Z,99535.33
2018-11-25T11:53:07.347Z,99535.42
2018-11-25T11:55:36.579Z,99532.19
2018-11-25T11:58:05.975Z,99531.53
2018-11-25T12:00:35.285Z,99529.34
2018-11-25T12:03:04.549Z,99523.42
2018-11-25T12:05:33.847Z,99520.18
2018-11-25T12:08:03.144Z,99516.53
2018-11-25T12:10:32.378Z,99515.03
2018-11-25T12:13:01.796Z,99516.97
2018-11-25T12:15:31.804Z,99512.92
2018-11-25T12:18:01.596Z,99508.44
2018-11-25T12:20:31.748Z,99508.03
2018-11-25T12:23:01.215Z,99500.07
2018-11-25T12:25:30.415Z,99497.75
2018-11-25T12:27:59.625Z,99499.59
2018-11-25T12:30:28.903Z,99499.74
2018-11-25T12:33:01.029Z,99507.94
2018-11-25T12:35:30.192Z,99509.76
2018-11-25T12:37:59.421Z,99505.87
2018-11-25T12:40:28.623Z,99500.20
2018-11-25T12:42:58.692Z,99503.66
2018-11-25T12:45:27.941Z,99500.53
2018-11-25T12:47:57.216Z,99496.81
2018-11-25T12:50:26.924Z,99495.70
2018-11-25T12:52:56.490Z,99496.98
2018-11-25T12:55:27.523Z,99499.09
2018-11-25T12:57:57.416Z,99487.20
2018-11-25T13:00:34.769Z,99487.34
2018-11-25T13:03:04.016Z,99490.53
2018-11-25T13:05:33.263Z,99487.27
2018-11-25T13:08:02.451Z,99491.66
2018-11-25T13:10:32.056Z,99483.25
2018-11-25T13:13:01.837Z,99477.02
2018-11-25T13:15:31.060Z,99482.81
2018-11-25T13:18:00.262Z,99476.11
2018-11-25T13:20:29.870Z,99480.20
2018-11-25T13:22:59.094Z,99474.69
2018-11-25T13:25:28.345Z,99472.86
2018-11-25T13:27:57.573Z,99470.53
2018-11-25T13:30:30.761Z,99466.65
2018-11-25T13:33:01.021Z,99468.98
2018-11-25T13:35:33.597Z,99467.14
2018-11-25T13:38:02.801Z,99459.91
2018-11-25T13:40:32.013Z,99462.89
2018-11-25T13:43:01.187Z,99460.83
2018-11-25T13:45:30.451Z,99464.38
2018-11-25T13:47:59.723Z,99458.16
2018-11-25T13:50:28.913Z,99445.27
2018-11-25T13:52:58.143Z,99449.53
2018-11-25T13:55:28.241Z,99450.50
2018-11-25T13:57:57.453Z,99446.59
2018-11-25T14:01:03.479Z,99450.70
2018-11-25T14:03:36.165Z,99446.73
2018-11-25T14:06:08.362Z,99444.84
2018-11-25T14:08:37.553Z,99439.02
2018-11-25T14:11:10.826Z,99444.09
2018-11-25T14:13:40.121Z,99445.67
2018-11-25T14:16:11.263Z,99442.91
2018-11-25T14:18:40.418Z,99436.83
2018-11-25T14:21:09.955Z,99435.59
2018-11-25T14:23:39.298Z,99439.00
2018-11-25T14:26:16.343Z,99429.28
2018-11-25T14:28:45.933Z,99428.14
2018-11-25T14:31:16.410Z,99423.06
2018-11-25T14:33:45.623Z,99426.14
2018-11-25T14:36:14.957Z,99424.50
2018-11-25T14:38:45.316Z,99426.70
2018-11-25T14:41:14.168Z,99422.34
2018-11-25T14:43:43.346Z,99430.25
2018-11-25T14:46:12.545Z,99425.59
2018-11-25T14:48:41.952Z,99436.59
2018-11-25T14:51:11.232Z,99439.14
2018-11-25T14:53:40.453Z,99439.80
2018-11-25T14:56:10.033Z,99441.82
2018-11-25T14:58:39.224Z,99446.16
2018-11-25T15:01:08.782Z,99446.70
2018-11-25T15:03:37.980Z,99442.80
2018-11-25T15:06:07.369Z,99436.06
2018-11-25T15:08:36.558Z,99440.96
2018-11-25T15:11:05.942Z,99437.41
2018-11-25T15:13:35.114Z,99431.13
2018-11-25T15:16:06.213Z,99431.42
2018-11-25T15:18:35.446Z,99423.31
2018-11-25T15:21:04.801Z,99421.25
2018-11-25T15:23:34.011Z,99416.98
2018-11-25T15:26:03.231Z,99421.27
2018-11-25T15:28:32.432Z,99431.14
2018-11-25T15:31:01.687Z,99426.41
2018-11-25T15:33:31.015Z,99428.73
2018-11-25T15:36:00.258Z,99433.32
2018-11-25T15:38:29.445Z,99430.41
2018-11-25T15:40:58.678Z,99429.12
2018-11-25T15:43:27.895Z,99430.76
2018-11-25T15:45:57.568Z,99429.39
2018-11-25T15:48:28.284Z,99428.80
2018-11-25T15:50:57.498Z,99426.41
2018-11-25T15:53:27.248Z,99430.14
2018-11-25T15:55:59.272Z,99437.20
2018-11-25T15:58:28.619Z,99439.55
2018-11-25T16:00:57.848Z,99435.86
2018-11-25T16:03:27.898Z,99431.08
2018-11-25T16:06:02.116Z,99431.67
2018-11-25T16:08:38.081Z,99428.88
2018-11-25T16:11:00.605Z,99428.87
2018-11-25T16:13:29.787Z,99423.86
2018-11-25T16:15:58.967Z,99423.23
2018-11-25T16:18:28.218Z,99420.22
2018-11-25T16:20:57.454Z,99420.88
2018-11-25T16:23:26.644Z,99432.17
2018-11-25T16:25:57.668Z,99438.14
2018-11-25T16:28:32.768Z,99437.20
2018-11-25T16:31:01.990Z,99436.22
2018-11-25T16:33:31.181Z,99440.30
2018-11-25T16:36:00.423Z,99433.95
2018-11-25T16:38:36.674Z,99440.42
2018-11-25T16:41:06.681Z,99438.77
2018-11-25T16:43:35.905Z,99440.69
2018-11-25T16:46:05.171Z,99447.59
2018-11-25T16:48:34.471Z,99444.37
2018-11-25T16:51:03.981Z,99446.89
2018-11-25T16:53:33.178Z,99445.44
2018-11-25T16:56:02.378Z,99444.06
2018-11-25T16:58:31.635Z,99446.02
2018-11-25T17:01:00.986Z,99444.50
2018-11-25T17:03:30.173Z,99453.52
2018-11-25T17:05:59.358Z,99456.62
2018-11-25T17:08:35.601Z,99449.75
2018-11-25T17:11:04.879Z,99449.12
2018-11-25T17:13:34.105Z,99442.38
2018-11-25T17:16:03.333Z,99443.23
2018-11-25T17:18:32.604Z,99441.39
2018-11-25T17:21:02.659Z,99440.42
2018-11-25T17:23:31.865Z,99437.75
2018-11-25T17:26:01.076Z,99445.63
2018-11-25T17:28:30.325Z,99441.08
2018-11-25T17:30:59.496Z,99435.28
2018-11-25T17:33:28.738Z,99442.96
2018-11-25T17:35:57.947Z,99445.13
2018-11-25T17:38:27.168Z,99445.55
2018-11-25T17:40:56.358Z,99442.19
2018-11-25T17:43:25.755Z,99434.70
2018-11-25T17:45:54.993Z,99434.86
2018-11-25T17:48:24.221Z,99435.94
2018-11-25T17:50:53.464Z,99426.31
2018-11-25T17:53:22.673Z,99424.36
2018-11-25T17:55:52.201Z,99427.47
2018-11-25T17:58:21.505Z,99431.86
2018-11-25T18:01:01.266Z,99422.95
2018-11-25T18:03:32.481Z,99425.94
2018-11-25T18:06:01.687Z,99430.33
2018-11-25T18:08:31.020Z,99434.72
2018-11-25T18:11:00.254Z,99439.98
2018-11-25T18:13:32.173Z,99436.91
2018-11-25T18:16:02.770Z,99436.05
2018-11-25T18:18:39.099Z,99434.26
2018-11-25T18:21:09.940Z,99433.89
2018-11-25T18:23:39.189Z,99434.71
2018-11-25T18:26:08.417Z,99435.03
2018-11-25T18:28:37.624Z,99438.38
2018-11-25T18:31:08.643Z,99437.92
2018-11-25T18:33:37.908Z,99446.19
2018-11-25T18:36:08.271Z,99448.03
2018-11-25T18:39:06.906Z,99442.92
2018-11-25T18:41:36.152Z,99446.48
2018-11-25T18:44:05.759Z,99440.13
2018-11-25T18:46:35.104Z,99435.64
2018-11-25T18:49:07.542Z,99430.19
2018-11-25T18:51:36.744Z,99430.31
2018-11-25T18:54:07.307Z,99431.19
2018-11-25T18:56:36.617Z,99437.77
2018-11-25T18:59:06.115Z,99432.44
2018-11-25T19:01:48.484Z,99433.67
2018-11-25T19:04:19.353Z,99427.68
2018-11-25T19:06:48.657Z,99424.86
2018-11-25T19:09:22.619Z,99430.50
2018-11-25T19:11:51.888Z,99430.22
2018-11-25T19:14:21.181Z,99429.80
2018-11-25T19:16:50.544Z,99424.89
2018-11-25T19:19:19.758Z,99419.52
2018-11-25T19:21:49.006Z,99425.30
2018-11-25T19:24:18.268Z,99422.80
2018-11-25T19:26:47.571Z,99424.31
2018-11-25T19:29:17.334Z,99423.81
2018-11-25T19:31:46.612Z,99424.00
2018-11-25T19:34:16.420Z,99422.26
2018-11-25T19:36:48.785Z,99432.53
2018-11-25T19:39:18.979Z,99428.53
2018-11-25T19:41:48.209Z,99424.09
2018-11-25T19:44:18.006Z,99431.87
2018-11-25T19:46:47.226Z,99421.52
2018-11-25T19:49:17.858Z,99417.38
2018-11-25T19:51:47.169Z,99418.14
2018-11-25T19:54:26.408Z,99418.09
2018-11-25T19:56:57.638Z,99426.31
2018-11-25T19:59:38.938Z,99432.78
2018-11-25T20:02:08.389Z,99431.73
2018-11-25T20:04:37.643Z,99425.17
2018-11-25T20:07:06.980Z,99420.67
2018-11-25T20:09:36.418Z,99427.08
2018-11-25T20:12:05.997Z,99426.53
2018-11-25T20:14:35.187Z,99421.04
2018-11-25T20:17:10.209Z,99422.03
2018-11-25T20:19:39.768Z,99418.20
2018-11-25T20:22:17.461Z,99420.98
2018-11-25T20:24:46.754Z,99420.92
2018-11-25T20:27:21.791Z,99416.04
2018-11-25T20:29:51.562Z,99424.34
2018-11-25T20:32:25.883Z,99423.71
2018-11-25T20:34:55.134Z,99428.79
2018-11-25T20:37:26.931Z,99433.25
2018-11-25T20:39:53.572Z,99428.79
2018-11-25T20:42:22.805Z,99430.53
2018-11-25T20:44:52.057Z,99435.13
2018-11-25T20:47:22.226Z,99435.23
2018-11-25T20:49:51.456Z,99434.37
2018-11-25T20:52:25.860Z,99432.23
2018-11-25T20:54:55.050Z,99432.36
2018-11-25T20:57:24.438Z,99430.65
2018-11-25T20:59:53.663Z,99435.84
2018-11-25T21:02:28.986Z,99436.56
2018-11-25T21:04:52.091Z,99438.72
2018-11-25T21:07:21.723Z,99439.92
2018-11-25T21:09:50.962Z,99437.58
2018-11-25T21:12:20.206Z,99437.63
2018-11-25T21:14:49.391Z,99441.88
2018-11-25T21:17:18.903Z,99442.53
2018-11-25T21:19:49.434Z,99438.86
2018-11-25T21:22:18.852Z,99441.34
2018-11-25T21:24:48.104Z,99439.84
2018-11-25T21:27:17.372Z,99435.27
2018-11-25T21:29:46.575Z,99438.89
2018-11-25T21:32:16.117Z,99435.64
2018-11-25T21:34:45.436Z,99434.57
2018-11-25T21:37:15.232Z,99434.20
2018-11-25T21:39:44.411Z,99439.57
2018-11-25T21:42:14.176Z,99430.98
2018-11-25T21:44:43.385Z,99425.20
2018-11-25T21:47:12.783Z,99423.68
2018-11-25T21:49:41.966Z,99423.61
2018-11-25T21:52:11.332Z,99424.03
2018-11-25T21:54:40.504Z,99420.55
2018-11-25T21:57:09.792Z,99421.05
2018-11-25T21:59:39.030Z,99426.56
2018-11-25T22:02:08.330Z,99431.83
2018-11-25T22:04:37.614Z,99424.67
2018-11-25T22:07:07.211Z,99425.20
2018-11-25T22:09:36.711Z,99426.28
2018-11-25T22:12:05.999Z,99431.28
2018-11-25T22:14:35.530Z,99431.50
2018-11-25T22:17:05.438Z,99436.39
2018-11-25T22:19:34.715Z,99437.34
2018-11-25T22:22:03.947Z,99433.86
2018-11-25T22:24:33.798Z,99435.22
2018-11-25T22:27:03.477Z,99432.83
2018-11-25T22:29:33.989Z,99427.02
2018-11-25T22:32:03.547Z,99438.70
2018-11-25T22:34:33.120Z,99439.53
2018-11-25T22:37:03.030Z,99438.27
2018-11-25T22:39:32.521Z,99441.51
2018-11-25T22:42:01.725Z,99452.63
2018-11-25T22:44:30.953Z,99444.36
2018-11-25T22:47:00.161Z,99450.01
2018-11-25T22:49:29.385Z,99453.12
2018-11-25T22:51:58.598Z,99452.70
2018-11-25T22:54:27.811Z,99452.61
2018-11-25T22:56:57.085Z,99450.30
2018-11-25T22:59:26.573Z,99450.52
2018-11-25T23:01:55.822Z,99449.31
2018-11-25T23:04:36.076Z,99444.77
2018-11-25T23:07:05.355Z,99446.23
2018-11-25T23:09:34.572Z,99448.11
2018-11-25T23:12:03.846Z,99452.27
2018-11-25T23:14:33.052Z,99450.30
2018-11-25T23:17:02.393Z,99448.70
2018-11-25T23:19:31.604Z,99447.98
2018-11-25T23:22:00.862Z,99446.74
2018-11-25T23:24:30.065Z,99443.81
2018-11-25T23:26:59.251Z,99439.86
2018-11-25T23:29:28.562Z,99442.29
2018-11-25T23:31:57.820Z,99438.99
2018-11-25T23:34:27.125Z,99443.25
2018-11-25T23:36:56.356Z,99445.66
2018-11-25T23:39:25.584Z,99439.31
2018-11-25T23:41:54.799Z,99442.37
2018-11-25T23:44:24.024Z,99437.44
2018-11-25T23:46:53.364Z,99443.16
2018-11-25T23:49:22.629Z,99431.39
2018-11-25T23:51:51.837Z,99444.33
2018-11-25T23:54:21.038Z,99439.26
2018-11-25T23:56:50.232Z,99435.61
2018-11-25T23:59:19.423Z,99431.80
